NY/NJ Local METAR Reports

 

KNYC - NYC/Central Park, NY, USA
Distance from Hoboken: NE 4mi, 7km
Updated: 09/25/2017 10:51am
Clear
Clear
 Wind from NE
Wind: NE 8 mph , 13 km/h
Temperature: 81°F , 27°C
Heat Index: 83°F , 28°C
Dew Point: 64°F , 18°C
Humidity: 58%
Barometer: 30.10 inHg , 1019.3 hPa
Clouds: Clear
Visibility: 10 miles , 16 km
2017/09/25 14:51 KNYC 251451Z 05007KT 10SM CLR 27/18 A3010 RMK AO2 SLP183 T02720183 $
KEWR - Newark, NJ, USA
Distance from Hoboken: WSW 8mi, 13km
Updated: 09/25/2017 10:51am
Clear
Clear
 Wind from E
Wind: E 5 mph , 7 km/h
Temperature: 82°F , 28°C
Heat Index: 84°F , 29°C
Dew Point: 66°F , 19°C
Humidity: 58%
Barometer: 30.07 inHg , 1018.3 hPa
Clouds: Clear
Visibility: 9 miles , 14 km
2017/09/25 14:51 KEWR 251451Z 09004KT 9SM CLR 28/19 A3007 RMK AO2 SLP181 T02830189 50001 $
 
KLGA - NYC/La Guardia, NY, USA
Distance from Hoboken: ENE 8mi, 13km
Updated: 09/25/2017 10:51am
Clear
Clear
 Wind from NE
Wind: NE 8 mph , 13 km/h
Temperature: 79°F , 26°C
Dew Point: 66°F , 19°C
Humidity: 65%
Barometer: 30.07 inHg , 1018.3 hPa
Clouds: Clear
Visibility: 10 miles , 16 km
2017/09/25 14:51 KLGA 251451Z 05007KT 10SM CLR 26/19 A3007 RMK AO2 SLP182 T02610189 50004
KTEB - Teterboro, NJ, USA
Distance from Hoboken: N 9mi, 14km
Updated: 09/25/2017 10:51am
Clear
Clear
 Wind from E
Wind: E 7 mph , 11 km/h
Temperature: 82°F , 28°C
Heat Index: 85°F , 29°C
Dew Point: 68°F , 20°C
Humidity: 62%
Barometer: 30.06 inHg , 1017.9 hPa
Clouds: Clear
Visibility: 10 miles , 16 km
2017/09/25 14:51 KTEB 251451Z 08006KT 10SM CLR 28/20 A3006 RMK AO2 SLP180 T02830200 50002
 
KJFK - NYC/Jfk Arpt, NY, USA
Distance from Hoboken: ESE 16mi, 25km
Updated: 09/25/2017 10:51am
Clear
Clear
 Wind from varies
Wind: varies 3 mph , 6 km/h
Temperature: 81°F , 27°C
Heat Index: 82°F , 28°C
Dew Point: 63°F , 17°C
Humidity: 54%
Barometer: 30.09 inHg , 1019 hPa
Clouds: Clear
Visibility: 10 miles , 16 km
2017/09/25 14:51 KJFK 251451Z VRB03KT 10SM CLR 27/17 A3009 RMK AO2 SLP187 T02670172 50004
KCDW - Caldwell, NJ, USA
Distance from Hoboken: NW 16mi, 26km
Updated: 09/25/2017 10:53am
Clear
Clear
 Wind from varies
Wind: varies 7 mph , 11 km/h
Temperature: 82°F , 28°C
Heat Index: 86°F , 30°C
Dew Point: 70°F , 21°C
Humidity: 66%
Barometer: 30.08 inHg , 1018.6 hPa
Clouds: Clear
Visibility: 10 miles , 16 km
2017/09/25 14:53 KCDW 251453Z VRB06KT 10SM CLR 28/21 A3008 RMK AO2 SLP191 T02780211 50000
 
KMMU - Morristown Muni, NJ, USA
Distance from Hoboken: W 20mi, 33km
Updated: 09/25/2017 10:45am
Clear
Clear
 Wind from NE
Wind: NE 7 mph , 11 km/h
Temperature: 81°F , 27°C
Heat Index: 84°F , 29°C
Dew Point: 68°F , 20°C
Humidity: 66%
Barometer: 30.09 inHg , 1019 hPa
Clouds: Clear
Visibility: 15 miles , 24 km
2017/09/25 14:45 KMMU 251445Z 05006KT 15SM SKC 27/20 A3009
KHPN - White Plains, NY, USA
Distance from Hoboken: NE 28mi, 46km
Updated: 09/25/2017 10:56am
Clear
Clear
 Wind from E
Wind: E 5 mph , 7 km/h
Temperature: 81°F , 27°C
Heat Index: 84°F , 29°C
Dew Point: 68°F , 20°C
Humidity: 66%
Barometer: 30.09 inHg , 1019 hPa
Clouds: Clear
Visibility: 10 miles , 16 km
2017/09/25 14:56 KHPN 251456Z 10004KT 10SM CLR 27/20 A3009 RMK AO2 SLP182 T02720200 50005
 
KFRG - Farmingdale, NY, USA
Distance from Hoboken: E 32mi, 52km
Updated: 09/25/2017 10:53am
Clear
Clear
 Wind from calm
Wind: Calm
Temperature: 79°F , 26°C
Dew Point: 57°F , 14°C
Humidity: 48%
Barometer: 30.08 inHg , 1018.6 hPa
Clouds: Clear
Visibility: 10 miles , 16 km
2017/09/25 14:53 KFRG 251453Z 00000KT 10SM CLR 26/14 A3008 RMK AO2 SLP185 T02610139 50004
KSMQ - Somerville, NJ, USA
Distance from Hoboken: WSW 34mi, 55km
Updated: 09/06/2017 9:01am
NOT Current
Overcast
Overcast
 Wind from N
Wind: N 9 mph , 15 km/h, Gust: 17 mph , 28 km/h
Temperature: 64°F , 18°C
Dew Point: 61°F , 16°C
Humidity: 88%
Barometer: 29.87 inHg , 1011.5 hPa
Clouds: Overcast
Visibility: 7 miles , 11 km
Cloud details: Partly cloudy 1200 ft
Overcast 2500 ft
2017/09/06 13:01 KSMQ 061301Z AUTO 35008G15KT 7SM SCT012 OVC025 18/16 A2987 RMK AO2 PRESRR T01780161
 
KBLM - Belmar/Farmdale, NJ, USA
Distance from Hoboken: S 40mi, 64km
Updated: 09/25/2017 10:56am
Clear
Clear
 Wind from NW
Wind: NW 3 mph , 6 km/h
Temperature: 82°F , 28°C
Heat Index: 84°F , 29°C
Dew Point: 64°F , 18°C
Humidity: 55%
Barometer: 30.08 inHg , 1018.6 hPa
Clouds: Clear
Visibility: 10 miles , 16 km
2017/09/25 14:56 KBLM 251456Z AUTO 31003KT 10SM CLR 28/18 A3008 RMK AO2 SLP189 T02830183 50001
K12N - Andover, NJ, USA
Distance from Hoboken: WNW 41mi, 67km
Updated: 09/25/2017 10:54am

 Wind from varies
Wind: varies 5 mph , 7 km/h
Temperature: 81°F , 27°C
Heat Index: 85°F , 29°C
Dew Point: 70°F , 21°C
Humidity: 70%
Barometer: 30.10 inHg , 1019.3 hPa
2017/09/25 14:54 K12N 251454Z AUTO VRB04KT 27/21 A3010 RMK AO1 SLP185 T02720211 50001
 
KFWN - Sussex, NJ, USA
Distance from Hoboken: NW 45mi, 72km
Updated: 09/25/2017 10:53am
Clear
Clear
 Wind from NNE
Wind: NNE 8 mph , 13 km/h
Temperature: 81°F , 27°C
Heat Index: 85°F , 29°C
Dew Point: 70°F , 21°C
Humidity: 70%
Barometer: 30.10 inHg , 1019.3 hPa
Clouds: Clear
Visibility: 10 miles , 16 km
2017/09/25 14:53 KFWN 251453Z AUTO 03007KT 10SM CLR 27/21 A3010 RMK AO2 RAB16E26 SLP191 P0000 60000 T02670206 50001
KISP - Islip, NY, USA
Distance from Hoboken: E 49mi, 79km
Updated: 09/25/2017 10:56am
Clear
Clear
 Wind from S
Wind: S 3 mph , 6 km/h
Temperature: 79°F , 26°C
Dew Point: 59°F , 15°C
Humidity: 51%
Barometer: 30.07 inHg , 1018.3 hPa
Clouds: Clear
Visibility: 10 miles , 16 km
2017/09/25 14:56 KISP 251456Z 18003KT 10SM CLR 26/15 A3007 RMK AO2 SLP182 T02610150 50002